Time;durP1;ratioP1;P1;durP2;ratioP2;P2;SDS_P1;SDS_P2;PMS_P1;PMS_P2;Temp;Humidity;BMP_temperature;BMP_pressure;BME280_temperature;BME280_humidity;BME280_pressure;Samples;Min_cycle;Max_cycle;Signal;HPM_P1;HPM_P2
2023/06/25 00:01:22;;;;;;;;;;;;;;;22.97;98.41;99821.34;5051455;28;20266;-79
2023/06/25 00:03:47;;;;;;;;;;;;;;;22.81;98.36;99813.75;5045879;28;20331;-79
2023/06/25 00:06:13;;;;;;;;;;;;;;;22.71;98.53;99818.75;5043067;28;19921;-79
2023/06/25 00:08:38;;;;;;;;;;;;;;;22.70;98.92;99817.09;5051797;28;19940;-78
2023/06/25 00:11:03;;;;;;;;;;;;;;;22.74;98.84;99818.31;5051217;28;20035;-79
2023/06/25 00:13:29;;;;;;;;;;;;;;;22.74;98.94;99821.03;5051913;28;19962;-78
2023/06/25 00:15:54;;;;;;;;;;;;;;;22.73;98.92;99817.53;5050915;28;19916;-78
2023/06/25 00:18:19;;;;;;;;;;;;;;;22.73;99.81;99819.41;5051703;28;20000;-78
2023/06/25 00:20:46;;;;;;;;;;;;;;;22.71;99.99;99822.25;5051272;28;19996;-78
2023/06/25 00:23:14;;;;;;;;;;;;;;;22.52;100.00;99822.34;5051606;28;19924;-78
2023/06/25 00:25:39;;;;;;;;;;;;;;;22.25;100.00;99833.22;5050893;28;20416;-79
2023/06/25 00:28:08;;;;;;;;;;;;;;;21.54;100.00;99827.72;5051674;28;19959;-77
2023/06/25 00:30:35;;;;;;;;;;;;;;;21.51;100.00;99832.66;5051988;28;19916;-77
2023/06/25 00:33:00;;;;;;;;;;;;;;;21.48;100.00;99828.53;5050985;28;19955;-78
2023/06/25 00:35:42;;;;;;;;;;;;;;;20.93;100.00;99826.97;5051434;28;20403;-78
2023/06/25 00:38:07;;;;;;;;;;;;;;;20.58;100.00;99836.97;5047675;28;19928;-76
2023/06/25 00:40:32;;;;;;;;;;;;;;;20.75;100.00;99822.19;5051722;28;20191;-78
2023/06/25 00:42:58;;;;;;;;;;;;;;;20.43;100.00;99818.38;5051380;28;20317;-77
2023/06/25 00:45:24;;;;;;;;;;;;;;;20.34;100.00;99824.09;5051679;28;19913;-77
2023/06/25 00:47:50;;;;;;;;;;;;;;;20.54;100.00;99824.19;5050830;28;19922;-78
2023/06/25 00:50:15;;;;;;;;;;;;;;;20.58;100.00;99822.75;5051365;28;19916;-78
2023/06/25 00:52:41;;;;;;;;;;;;;;;20.71;100.00;99820.94;5051139;28;19920;-78
2023/06/25 00:55:09;;;;;;;;;;;;;;;20.82;100.00;99823.03;5049512;28;19986;-78
2023/06/25 00:57:35;;;;;;;;;;;;;;;20.97;100.00;99820.16;5050021;28;19939;-78
2023/06/25 01:00:00;;;;;;;;;;;;;;;21.07;100.00;99822.47;5048464;28;20408;-76
2023/06/25 01:02:35;;;;;;;;;;;;;;;21.16;100.00;99823.94;5049482;28;19932;-77
2023/06/25 01:05:09;;;;;;;;;;;;;;;21.15;100.00;99819.63;5048928;28;19932;-77
2023/06/25 01:07:36;;;;;;;;;;;;;;;21.14;100.00;99816.09;5050316;28;20340;-77
2023/06/25 01:10:03;;;;;;;;;;;;;;;21.16;100.00;99807.84;5049987;28;20819;-77
2023/06/25 01:12:28;;;;;;;;;;;;;;;21.05;100.00;99811.94;5052068;28;19917;-77
2023/06/25 01:14:54;;;;;;;;;;;;;;;20.74;100.00;99808.97;5057694;28;20395;-77
2023/06/25 01:17:20;;;;;;;;;;;;;;;20.69;100.00;99811.44;5071664;28;19948;-77
2023/06/25 01:19:45;;;;;;;;;;;;;;;20.72;100.00;99811.88;5071143;28;19917;-78
2023/06/25 01:22:12;;;;;;;;;;;;;;;20.79;100.00;99812.69;5060123;28;19917;-78
2023/06/25 01:24:44;;;;;;;;;;;;;;;20.89;100.00;99817.69;5054896;28;19921;-77
2023/06/25 01:27:10;;;;;;;;;;;;;;;20.93;100.00;99815.41;5050701;28;19921;-77
2023/06/25 01:29:35;;;;;;;;;;;;;;;20.92;100.00;99819.13;5046570;28;20050;-77
2023/06/25 01:32:01;;;;;;;;;;;;;;;20.93;100.00;99808.19;5050373;28;20376;-77
2023/06/25 01:34:26;;;;;;;;;;;;;;;20.90;100.00;99818.53;5049270;28;19921;-77
2023/06/25 01:36:52;;;;;;;;;;;;;;;20.85;100.00;99817.25;5052439;28;20059;-77
2023/06/25 01:39:21;;;;;;;;;;;;;;;20.45;100.00;99823.53;5055262;28;19916;-77
2023/06/25 01:41:47;;;;;;;;;;;;;;;20.22;100.00;99817.59;5056691;28;20029;-77
2023/06/25 01:44:14;;;;;;;;;;;;;;;20.12;100.00;99814.47;5057867;28;20387;-77
2023/06/25 01:46:39;;;;;;;;;;;;;;;20.17;100.00;99822.72;5057866;28;20062;-77
2023/06/25 01:49:04;;;;;;;;;;;;;;;20.17;100.00;99817.38;5056707;28;20019;-76
2023/06/25 01:51:31;;;;;;;;;;;;;;;20.07;100.00;99823.09;5055941;28;20020;-77
2023/06/25 01:53:57;;;;;;;;;;;;;;;20.18;100.00;99813.69;5056452;28;19921;-77
2023/06/25 01:56:22;;;;;;;;;;;;;;;20.25;100.00;99818.06;5056654;28;19923;-75
2023/06/25 01:58:50;;;;;;;;;;;;;;;20.29;100.00;99819.31;5055373;28;20015;-76
2023/06/25 02:01:15;;;;;;;;;;;;;;;20.39;100.00;99821.63;5051440;28;19917;-77
2023/06/25 02:03:40;;;;;;;;;;;;;;;20.36;100.00;99822.03;5056817;28;20427;-76
2023/06/25 02:06:06;;;;;;;;;;;;;;;20.19;100.00;99816.16;5056750;28;20296;-77
2023/06/25 02:08:31;;;;;;;;;;;;;;;20.17;100.00;99822.72;5056016;28;20348;-76
2023/06/25 02:10:56;;;;;;;;;;;;;;;20.26;100.00;99819.69;5056227;28;19920;-78
2023/06/25 02:13:22;;;;;;;;;;;;;;;20.31;100.00;99811.06;5055325;28;19967;-75
2023/06/25 02:15:47;;;;;;;;;;;;;;;20.30;100.00;99812.91;5055355;28;19952;-77
2023/06/25 02:18:15;;;;;;;;;;;;;;;20.32;100.00;99804.72;5055384;28;20007;-77
2023/06/25 02:20:40;;;;;;;;;;;;;;;20.27;100.00;99807.13;5056750;28;20000;-77
2023/06/25 02:23:05;;;;;;;;;;;;;;;20.22;100.00;99801.53;5056589;28;19928;-77
2023/06/25 02:25:30;;;;;;;;;;;;;;;20.23;100.00;99805.88;5055120;28;19948;-77
2023/06/25 02:27:56;;;;;;;;;;;;;;;20.20;100.00;99796.41;5054920;28;19921;-77
2023/06/25 02:30:21;;;;;;;;;;;;;;;20.28;100.00;99798.06;5055285;28;19920;-74
2023/06/25 02:32:46;;;;;;;;;;;;;;;20.26;100.00;99805.47;5055215;28;20405;-76
2023/06/25 02:35:12;;;;;;;;;;;;;;;20.25;100.00;99801.97;5056504;28;20276;-76
2023/06/25 02:37:37;;;;;;;;;;;;;;;20.20;100.00;99806.28;5056277;28;19969;-76
2023/06/25 02:40:03;;;;;;;;;;;;;;;20.17;100.00;99809.34;5056221;28;20288;-77
2023/06/25 02:42:28;;;;;;;;;;;;;;;20.15;100.00;99808.69;5050434;28;19923;-76
2023/06/25 02:44:54;;;;;;;;;;;;;;;20.04;100.00;99805.56;5055784;28;19923;-74
2023/06/25 02:47:19;;;;;;;;;;;;;;;19.93;100.00;99811.47;5050522;28;20364;-76
2023/06/25 02:49:45;;;;;;;;;;;;;;;19.81;100.00;99812.22;5046586;28;19916;-75
2023/06/25 02:52:11;;;;;;;;;;;;;;;19.73;100.00;99815.88;5042288;28;20293;-76
2023/06/25 02:54:36;;;;;;;;;;;;;;;19.76;100.00;99820.84;5047770;28;19970;-76
2023/06/25 02:57:01;;;;;;;;;;;;;;;19.74;100.00;99817.53;5052146;28;20348;-76
2023/06/25 02:59:27;;;;;;;;;;;;;;;19.76;100.00;99826.19;5051617;28;19917;-76
2023/06/25 03:01:53;;;;;;;;;;;;;;;19.75;100.00;99821.84;5045714;28;20348;-74
2023/06/25 03:04:18;;;;;;;;;;;;;;;19.70;100.00;99826.16;5051486;28;20276;-75
2023/06/25 03:06:45;;;;;;;;;;;;;;;19.66;100.00;99833.75;5043345;28;19921;-77
2023/06/25 03:09:10;;;;;;;;;;;;;;;19.72;100.00;99835.66;5047484;28;20380;-76
2023/06/25 03:11:36;;;;;;;;;;;;;;;19.76;100.00;99828.88;5051020;28;19920;-76
2023/06/25 03:14:01;;;;;;;;;;;;;;;19.74;100.00;99833.59;5050517;28;19966;-77
2023/06/25 03:16:27;;;;;;;;;;;;;;;19.70;100.00;99837.69;5051411;28;19923;-75
2023/06/25 03:18:53;;;;;;;;;;;;;;;19.69;100.00;99835.19;5050767;28;19917;-76
2023/06/25 03:21:18;;;;;;;;;;;;;;;19.59;100.00;99840.91;5052441;28;20369;-74
2023/06/25 03:23:44;;;;;;;;;;;;;;;19.57;100.00;99834.91;5047347;28;19916;-77
2023/06/25 03:26:10;;;;;;;;;;;;;;;19.53;100.00;99836.31;5046538;28;19917;-76
2023/06/25 03:28:36;;;;;;;;;;;;;;;19.57;100.00;99833.06;5046931;28;19921;-78
2023/06/25 03:31:01;;;;;;;;;;;;;;;19.58;100.00;99826.69;5044090;28;20799;-75
2023/06/25 03:33:31;;;;;;;;;;;;;;;19.62;100.00;99825.25;5050918;28;19944;-76
2023/06/25 03:35:56;;;;;;;;;;;;;;;19.52;100.00;99823.94;5051981;28;20280;-76
2023/06/25 03:38:22;;;;;;;;;;;;;;;19.50;100.00;99836.69;5051375;28;20358;-76
2023/06/25 03:40:48;;;;;;;;;;;;;;;19.48;100.00;99833.41;5046302;28;19912;-76
2023/06/25 03:43:13;;;;;;;;;;;;;;;19.52;100.00;99840.00;5052114;28;19917;-75
2023/06/25 03:45:39;;;;;;;;;;;;;;;19.52;100.00;99848.03;5042598;28;19996;-76
2023/06/25 03:48:05;;;;;;;;;;;;;;;19.55;100.00;99855.69;5066676;28;20365;-75
2023/06/25 03:50:30;;;;;;;;;;;;;;;19.50;100.00;99852.75;5046721;28;19958;-76
2023/06/25 03:52:56;;;;;;;;;;;;;;;19.51;100.00;99849.06;5051557;28;20329;-77
2023/06/25 03:55:21;;;;;;;;;;;;;;;19.46;100.00;99841.63;5046367;28;19920;-76
2023/06/25 03:57:47;;;;;;;;;;;;;;;19.53;100.00;99836.31;5033889;28;19917;-77
2023/06/25 04:00:12;;;;;;;;;;;;;;;19.56;100.00;99833.25;5050168;28;19917;-77
2023/06/25 04:02:40;;;;;;;;;;;;;;;19.52;100.00;99846.19;5051999;28;19916;-76
2023/06/25 04:05:06;;;;;;;;;;;;;;;19.51;100.00;99838.34;5046240;28;19921;-77
2023/06/25 04:07:31;;;;;;;;;;;;;;;19.54;100.00;99840.66;5050269;28;19956;-76
2023/06/25 04:09:57;;;;;;;;;;;;;;;19.57;100.00;99833.06;5050694;28;19936;-76
2023/06/25 04:12:23;;;;;;;;;;;;;;;19.62;100.00;99832.47;5050588;28;19930;-77
2023/06/25 04:14:49;;;;;;;;;;;;;;;19.66;100.00;99836.44;5049991;28;20030;-75
2023/06/25 04:17:14;;;;;;;;;;;;;;;19.66;100.00;99836.44;5073433;22;19926;-73
2023/06/25 04:19:42;;;;;;;;;;;;;;;19.57;100.00;99842.94;5071832;28;19974;-73
2023/06/25 04:22:07;;;;;;;;;;;;;;;19.60;100.00;99831.84;5075235;28;19917;-73
2023/06/25 04:24:33;;;;;;;;;;;;;;;19.63;100.00;99842.16;5078807;28;19970;-74
2023/06/25 04:26:59;;;;;;;;;;;;;;;19.70;100.00;99845.72;5071445;28;20283;-74
2023/06/25 04:29:24;;;;;;;;;;;;;;;19.64;100.00;99838.47;5071892;28;19928;-74
2023/06/25 04:31:50;;;;;;;;;;;;;;;19.63;100.00;99842.97;5069342;28;20300;-74
2023/06/25 04:34:16;;;;;;;;;;;;;;;19.62;100.00;99840.50;5070214;28;20121;-73
2023/06/25 04:36:44;;;;;;;;;;;;;;;19.68;100.00;99845.06;5071524;28;19916;-74
2023/06/25 04:39:10;;;;;;;;;;;;;;;19.59;100.00;99847.09;5070330;28;19927;-74
2023/06/25 04:41:36;;;;;;;;;;;;;;;19.58;100.00;99840.06;5066204;28;20256;-73
2023/06/25 04:44:02;;;;;;;;;;;;;;;19.62;100.00;99841.31;5069781;28;19923;-74
2023/06/25 04:46:28;;;;;;;;;;;;;;;19.67;100.00;99837.25;5053196;28;19924;-74
2023/06/25 04:48:54;;;;;;;;;;;;;;;19.60;100.00;99835.34;5070839;28;19916;-74
2023/06/25 04:51:19;;;;;;;;;;;;;;;19.53;100.00;99842.50;5071329;28;19917;-71
2023/06/25 04:53:44;;;;;;;;;;;;;;;19.61;100.00;99844.22;5071146;28;20008;-74
2023/06/25 04:56:10;;;;;;;;;;;;;;;19.64;100.00;99843.81;5071159;28;19954;-72
2023/06/25 04:58:35;;;;;;;;;;;;;;;19.67;100.00;99851.47;5071102;28;19916;-73
2023/06/25 05:01:02;;;;;;;;;;;;;;;19.75;100.00;99858.50;5070971;28;20041;-73
2023/06/25 05:03:29;;;;;;;;;;;;;;;19.76;100.00;99852.97;5070762;28;20253;-73
2023/06/25 05:05:54;;;;;;;;;;;;;;;19.71;100.00;99858.09;5069237;28;19966;-73
2023/06/25 05:08:20;;;;;;;;;;;;;;;19.69;100.00;99854.75;5070890;28;19927;-74
2023/06/25 05:10:45;;;;;;;;;;;;;;;19.71;100.00;99855.41;5070917;28;19917;-73
2023/06/25 05:13:11;;;;;;;;;;;;;;;19.76;100.00;99858.31;5070599;28;19912;-73
2023/06/25 05:15:39;;;;;;;;;;;;;;;19.80;100.00;99856.91;5069919;28;19920;-73
2023/06/25 05:18:05;;;;;;;;;;;;;;;19.87;100.00;99859.63;5070061;28;19920;-74
2023/06/25 05:20:35;;;;;;;;;;;;;;;19.89;100.00;99858.44;5070925;28;19924;-73
2023/06/25 05:23:01;;;;;;;;;;;;;;;19.95;100.00;99857.66;5070950;28;19920;-74
2023/06/25 05:25:27;;;;;;;;;;;;;;;20.00;100.00;99860.56;5071003;28;20388;-74
2023/06/25 05:27:53;;;;;;;;;;;;;;;20.17;100.00;99862.94;5070675;28;19962;-73
2023/06/25 05:30:18;;;;;;;;;;;;;;;20.23;100.00;99860.28;5071241;28;20268;-72
2023/06/25 05:32:44;;;;;;;;;;;;;;;20.24;100.00;99859.28;5070447;28;19916;-72
2023/06/25 05:35:09;;;;;;;;;;;;;;;20.27;100.00;99860.72;5070454;28;19920;-73
2023/06/25 05:37:34;;;;;;;;;;;;;;;20.29;100.00;99867.53;5069580;28;19920;-75
2023/06/25 05:40:00;;;;;;;;;;;;;;;20.37;100.00;99863.91;5070472;28;19920;-74
2023/06/25 05:42:25;;;;;;;;;;;;;;;20.32;100.00;99863.69;5071081;28;19948;-75
2023/06/25 05:44:51;;;;;;;;;;;;;;;20.36;100.00;99870.28;5070572;28;19916;-74
2023/06/25 05:47:16;;;;;;;;;;;;;;;20.35;100.00;99879.34;5061456;28;20003;-72
2023/06/25 05:49:41;;;;;;;;;;;;;;;20.31;100.00;99878.06;5068965;28;19917;-72
2023/06/25 05:52:07;;;;;;;;;;;;;;;20.39;100.00;99870.72;5070366;28;19983;-73
2023/06/25 05:54:32;;;;;;;;;;;;;;;20.46;100.00;99875.28;5060827;28;20399;-73
2023/06/25 05:56:58;;;;;;;;;;;;;;;20.52;100.00;99879.84;5070376;28;19959;-73
2023/06/25 05:59:24;;;;;;;;;;;;;;;20.52;100.00;99875.31;5070953;28;19916;-73
2023/06/25 06:01:49;;;;;;;;;;;;;;;20.53;100.00;99873.47;5069773;28;19969;-72
2023/06/25 06:04:14;;;;;;;;;;;;;;;20.61;100.00;99878.66;5070357;28;20324;-73
2023/06/25 06:06:40;;;;;;;;;;;;;;;20.64;100.00;99879.09;5068930;28;19920;-72
2023/06/25 06:09:05;;;;;;;;;;;;;;;20.75;100.00;99881.19;5069824;28;19923;-73
2023/06/25 06:11:32;;;;;;;;;;;;;;;20.77;100.00;99879.16;5065436;28;19993;-73
2023/06/25 06:13:57;;;;;;;;;;;;;;;20.85;100.00;99875.47;5066057;28;20291;-73
2023/06/25 06:16:23;;;;;;;;;;;;;;;20.94;100.00;99884.16;5070129;28;19916;-74
2023/06/25 06:18:48;;;;;;;;;;;;;;;20.96;100.00;99882.09;5069354;28;19916;-74
2023/06/25 06:21:14;;;;;;;;;;;;;;;21.01;100.00;99885.00;5066942;28;19923;-74
2023/06/25 06:23:39;;;;;;;;;;;;;;;21.04;100.00;99884.56;5065686;28;19917;-73
2023/06/25 06:26:05;;;;;;;;;;;;;;;21.13;100.00;99883.38;5056147;28;19951;-73
2023/06/25 06:28:33;;;;;;;;;;;;;;;21.20;100.00;99884.25;5073997;28;19920;-74
2023/06/25 06:30:58;;;;;;;;;;;;;;;21.26;100.00;99888.81;5072829;28;19916;-72
2023/06/25 06:33:24;;;;;;;;;;;;;;;21.36;100.00;99889.25;5073560;28;19947;-73
2023/06/25 06:35:49;;;;;;;;;;;;;;;21.50;100.00;99882.84;5073358;28;20642;-72
2023/06/25 06:38:15;;;;;;;;;;;;;;;21.65;100.00;99883.47;5073251;28;19916;-72
2023/06/25 06:40:40;;;;;;;;;;;;;;;21.82;100.00;99883.06;5073636;28;19927;-72
2023/06/25 06:43:06;;;;;;;;;;;;;;;21.96;100.00;99890.13;5073385;28;20314;-73
2023/06/25 06:45:31;;;;;;;;;;;;;;;22.06;100.00;99874.38;5073745;28;19924;-74
2023/06/25 06:47:57;;;;;;;;;;;;;;;22.16;100.00;99872.09;5072883;28;20006;-74
2023/06/25 06:50:22;;;;;;;;;;;;;;;22.25;100.00;99876.22;5073901;28;20555;-73
2023/06/25 06:52:47;;;;;;;;;;;;;;;22.29;100.00;99877.44;5072840;28;19917;-75
2023/06/25 06:55:13;;;;;;;;;;;;;;;22.34;100.00;99872.25;5073143;28;19926;-74
2023/06/25 06:57:38;;;;;;;;;;;;;;;22.42;100.00;99874.72;5073413;28;19923;-71
2023/06/25 07:00:04;;;;;;;;;;;;;;;22.49;100.00;99868.50;5073395;28;19917;-72
2023/06/25 07:02:29;;;;;;;;;;;;;;;22.59;100.00;99871.56;5072893;28;19916;-74
2023/06/25 07:04:55;;;;;;;;;;;;;;;22.63;100.00;99875.47;5071847;28;19923;-74
2023/06/25 07:07:21;;;;;;;;;;;;;;;22.68;100.00;99878.38;5073483;28;19974;-75
2023/06/25 07:09:51;;;;;;;;;;;;;;;22.71;100.00;99877.94;5072651;28;20358;-74
2023/06/25 07:12:16;;;;;;;;;;;;;;;22.75;100.00;99873.78;5073212;28;19970;-74
2023/06/25 07:14:42;;;;;;;;;;;;;;;22.77;100.00;99882.50;5068006;28;19917;-75
2023/06/25 07:17:07;;;;;;;;;;;;;;;22.89;100.00;99875.41;5070580;28;19927;-76
2023/06/25 07:19:33;;;;;;;;;;;;;;;22.97;100.00;99877.03;5073352;28;20439;-75
2023/06/25 07:21:58;;;;;;;;;;;;;;;23.09;100.00;99878.00;5073294;28;19991;-74
2023/06/25 07:24:24;;;;;;;;;;;;;;;23.21;100.00;99874.38;5072927;28;19923;-77
2023/06/25 07:26:49;;;;;;;;;;;;;;;23.32;100.00;99870.19;5073100;28;19918;-77
2023/06/25 07:29:14;;;;;;;;;;;;;;;23.42;100.00;99869.69;5068145;28;19924;-75
2023/06/25 07:31:40;;;;;;;;;;;;;;;23.49;100.00;99865.94;5073089;28;19920;-72
2023/06/25 07:34:05;;;;;;;;;;;;;;;23.46;100.00;99860.13;5072335;28;19916;-72
2023/06/25 07:36:31;;;;;;;;;;;;;;;23.49;100.00;99870.50;5073143;28;19985;-74
2023/06/25 07:38:58;;;;;;;;;;;;;;;23.53;100.00;99867.16;5072160;28;19916;-73
2023/06/25 07:41:23;;;;;;;;;;;;;;;23.54;100.00;99865.28;5072764;28;19917;-73
2023/06/25 07:43:49;;;;;;;;;;;;;;;23.53;100.00;99866.31;5072330;28;19927;-72
2023/06/25 07:46:14;;;;;;;;;;;;;;;23.55;100.00;99864.25;5072565;28;20415;-71
2023/06/25 07:48:40;;;;;;;;;;;;;;;23.64;100.00;99862.91;5072721;28;19970;-72
2023/06/25 07:51:05;;;;;;;;;;;;;;;23.75;100.00;99867.56;5072938;28;19920;-73
2023/06/25 07:53:31;;;;;;;;;;;;;;;23.83;100.00;99859.22;5072882;28;20062;-71
2023/06/25 07:55:59;;;;;;;;;;;;;;;23.93;100.00;99856.84;5082326;28;19916;-72
2023/06/25 07:58:25;;;;;;;;;;;;;;;24.01;100.00;99859.25;5071590;28;19924;-72
2023/06/25 08:00:50;;;;;;;;;;;;;;;24.08;100.00;99854.63;5071789;28;19916;-74
2023/06/25 08:03:15;;;;;;;;;;;;;;;24.14;100.00;99854.78;5068116;28;19931;-76
2023/06/25 08:05:41;;;;;;;;;;;;;;;24.15;100.00;99859.94;5073043;28;19913;-76
2023/06/25 08:08:06;;;;;;;;;;;;;;;24.19;100.00;99849.56;5072869;28;19916;-73
2023/06/25 08:10:32;;;;;;;;;;;;;;;24.22;100.00;99859.91;5071768;28;19946;-73
2023/06/25 08:12:57;;;;;;;;;;;;;;;24.28;100.00;99854.44;5072857;28;19912;-73
2023/06/25 08:15:23;;;;;;;;;;;;;;;24.35;100.00;99852.50;5072286;28;20021;-78
2023/06/25 08:17:48;;;;;;;;;;;;;;;24.40;100.00;99839.16;5071303;28;19916;-73
2023/06/25 08:20:14;;;;;;;;;;;;;;;24.43;100.00;99854.06;5072153;28;19970;-73
2023/06/25 08:22:39;;;;;;;;;;;;;;;24.42;100.00;99855.13;5066260;28;19922;-70
2023/06/25 08:25:07;;;;;;;;;;;;;;;24.43;100.00;99843.28;5068489;28;20395;-73
2023/06/25 08:27:32;;;;;;;;;;;;;;;24.51;100.00;99847.53;5071678;28;19931;-73
2023/06/25 08:30:00;;;;;;;;;;;;;;;24.59;100.00;99839.16;5065313;28;19917;-72
2023/06/25 08:32:26;;;;;;;;;;;;;;;24.62;100.00;99844.94;5067483;28;19927;-74
2023/06/25 08:34:51;;;;;;;;;;;;;;;24.73;100.00;99844.16;5069680;28;19916;-74
2023/06/25 08:37:17;;;;;;;;;;;;;;;24.72;100.00;99850.59;5067973;28;19924;-74
2023/06/25 08:39:42;;;;;;;;;;;;;;;24.76;100.00;99843.69;5070716;28;20376;-72
2023/06/25 08:42:08;;;;;;;;;;;;;;;24.81;100.00;99843.00;5071161;28;19927;-73
2023/06/25 08:44:33;;;;;;;;;;;;;;;24.82;100.00;99850.06;5071189;28;19920;-74
2023/06/25 08:46:59;;;;;;;;;;;;;;;24.87;100.00;99847.47;5066117;28;19916;-73
2023/06/25 08:49:28;;;;;;;;;;;;;;;24.92;100.00;99855.75;5064864;28;19916;-75
2023/06/25 08:51:55;;;;;;;;;;;;;;;24.94;100.00;99850.97;5071019;28;19926;-75
2023/06/25 08:54:20;;;;;;;;;;;;;;;24.86;100.00;99846.66;5070896;28;19917;-75
2023/06/25 08:56:46;;;;;;;;;;;;;;;24.83;100.00;99854.41;5071114;28;19939;-74
2023/06/25 08:59:13;;;;;;;;;;;;;;;24.96;100.00;99850.72;5070710;28;19939;-76
2023/06/25 09:01:38;;;;;;;;;;;;;;;25.02;100.00;99839.03;5066849;28;19916;-74
2023/06/25 09:04:04;;;;;;;;;;;;;;;25.07;100.00;99842.69;5070626;28;19927;-73
2023/06/25 09:06:29;;;;;;;;;;;;;;;25.10;100.00;99835.97;5071235;28;19916;-75
2023/06/25 09:08:55;;;;;;;;;;;;;;;25.17;100.00;99842.09;5070480;28;19925;-74
2023/06/25 09:11:20;;;;;;;;;;;;;;;25.24;100.00;99837.44;5071316;28;19920;-72
2023/06/25 09:13:45;;;;;;;;;;;;;;;25.30;99.51;99836.50;5069832;28;19939;-72
2023/06/25 09:16:11;;;;;;;;;;;;;;;25.40;100.00;99836.75;5070394;28;19970;-75
2023/06/25 09:18:36;;;;;;;;;;;;;;;25.43;100.00;99839.00;5069637;28;20011;-73
2023/06/25 09:21:03;;;;;;;;;;;;;;;25.52;100.00;99831.38;5070494;28;19972;-73
2023/06/25 09:23:28;;;;;;;;;;;;;;;25.56;100.00;99825.31;5071082;28;19947;-74
2023/06/25 09:25:54;;;;;;;;;;;;;;;25.57;99.89;99832.34;5068441;28;19979;-73
2023/06/25 09:28:20;;;;;;;;;;;;;;;25.57;99.45;99826.94;5069987;28;19916;-73
2023/06/25 09:30:45;;;;;;;;;;;;;;;25.60;99.35;99829.19;5069618;28;19917;-77
2023/06/25 09:33:14;;;;;;;;;;;;;;;25.68;99.52;99825.34;5069173;28;19920;-75
2023/06/25 09:35:39;;;;;;;;;;;;;;;25.72;97.53;99825.69;5068687;28;20024;-75
2023/06/25 09:38:05;;;;;;;;;;;;;;;25.78;96.54;99817.47;5069628;28;20003;-75
2023/06/25 09:40:31;;;;;;;;;;;;;;;25.82;96.64;99817.78;5069745;28;19929;-74
2023/06/25 09:42:58;;;;;;;;;;;;;;;25.88;96.14;99819.56;5067896;28;19920;-75
2023/06/25 09:45:24;;;;;;;;;;;;;;;25.96;95.53;99820.03;5069524;28;20394;-75
2023/06/25 09:47:50;;;;;;;;;;;;;;;25.99;92.85;99819.56;5069210;28;19916;-75
2023/06/25 09:50:20;;;;;;;;;;;;;;;26.00;93.40;99820.38;5068896;28;19947;-76
2023/06/25 09:52:56;;;;;;;;;;;;;;;26.03;93.91;99809.09;5066343;28;19924;-73
2023/06/25 09:55:22;;;;;;;;;;;;;;;26.08;94.13;99811.91;5067488;28;20372;-74
2023/06/25 09:57:47;;;;;;;;;;;;;;;26.15;93.70;99812.63;5070506;28;19916;-75
2023/06/25 10:00:13;;;;;;;;;;;;;;;26.20;93.42;99812.72;5068254;28;19942;-74
2023/06/25 10:02:39;;;;;;;;;;;;;;;26.21;94.66;99808.97;5072074;28;19924;-74
2023/06/25 10:05:04;;;;;;;;;;;;;;;26.23;94.89;99809.56;5073190;28;19912;-74
2023/06/25 10:07:30;;;;;;;;;;;;;;;26.27;93.97;99801.81;5073837;28;19951;-76
2023/06/25 10:09:56;;;;;;;;;;;;;;;26.32;93.76;99802.72;5070403;28;20415;-75
2023/06/25 10:12:22;;;;;;;;;;;;;;;26.41;95.47;99795.88;5073837;28;20054;-75
2023/06/25 10:14:48;;;;;;;;;;;;;;;26.46;94.56;99797.84;5073303;28;19924;-74
2023/06/25 10:17:14;;;;;;;;;;;;;;;26.51;94.23;99794.44;5073155;28;20661;-75
2023/06/25 10:19:50;;;;;;;;;;;;;;;26.53;94.35;99793.13;5073547;28;19923;-74
2023/06/25 10:22:20;;;;;;;;;;;;;;;26.51;94.10;99794.44;5070743;28;20017;-74
2023/06/25 10:24:50;;;;;;;;;;;;;;;26.56;93.42;99791.84;5070680;28;19969;-74
2023/06/25 10:27:24;;;;;;;;;;;;;;;26.62;93.15;99790.88;5073686;28;19917;-74
2023/06/25 10:29:50;;;;;;;;;;;;;;;26.66;93.21;99786.59;5073075;28;19916;-73
2023/06/25 10:32:19;;;;;;;;;;;;;;;26.70;93.06;99788.59;5067741;28;19923;-75
2023/06/25 10:34:51;;;;;;;;;;;;;;;26.72;89.98;99781.06;5071767;28;19916;-76
2023/06/25 10:37:18;;;;;;;;;;;;;;;26.74;89.16;99783.53;5073478;28;20425;-75
2023/06/25 10:39:43;;;;;;;;;;;;;;;26.79;88.84;99775.50;5073437;28;19916;-75
2023/06/25 10:42:08;;;;;;;;;;;;;;;26.87;88.59;99775.91;5073388;28;20015;-75
2023/06/25 10:44:34;;;;;;;;;;;;;;;26.88;86.80;99774.88;5072364;28;19924;-74
2023/06/25 10:47:04;;;;;;;;;;;;;;;26.89;85.99;99764.88;5073003;28;19916;-74
2023/06/25 10:49:29;;;;;;;;;;;;;;;26.99;85.00;99767.75;5073124;28;19916;-74
2023/06/25 10:51:57;;;;;;;;;;;;;;;27.07;84.78;99767.34;5072421;28;19917;-77
2023/06/25 10:54:22;;;;;;;;;;;;;;;27.15;82.53;99769.66;5073151;28;20364;-75
2023/06/25 10:56:48;;;;;;;;;;;;;;;27.21;78.98;99767.88;5073045;28;20049;-75
2023/06/25 10:59:20;;;;;;;;;;;;;;;27.24;77.39;99756.53;5073278;28;19953;-76
2023/06/25 11:01:45;;;;;;;;;;;;;;;27.27;77.33;99750.63;5071692;28;19916;-75
2023/06/25 11:04:14;;;;;;;;;;;;;;;27.28;77.80;99758.47;5072913;28;19917;-75
2023/06/25 11:06:40;;;;;;;;;;;;;;;27.37;76.89;99753.50;5069206;28;19935;-76
2023/06/25 11:09:05;;;;;;;;;;;;;;;27.42;76.58;99747.31;5071569;28;19920;-75
2023/06/25 11:11:31;;;;;;;;;;;;;;;27.49;75.54;99742.56;5072632;28;19924;-75
2023/06/25 11:13:56;;;;;;;;;;;;;;;27.56;74.52;99740.53;5069833;28;19927;-75
2023/06/25 11:16:22;;;;;;;;;;;;;;;27.61;72.42;99735.19;5070694;28;20110;-75
2023/06/25 11:18:50;;;;;;;;;;;;;;;27.66;71.89;99727.13;5068817;28;20001;-76
2023/06/25 11:21:16;;;;;;;;;;;;;;;27.69;69.27;99737.44;5071896;28;20291;-76
2023/06/25 11:23:44;;;;;;;;;;;;;;;27.70;69.78;99730.97;5073083;28;19916;-73
2023/06/25 11:26:13;;;;;;;;;;;;;;;27.72;69.13;99731.53;5076569;28;20037;-74
2023/06/25 11:28:38;;;;;;;;;;;;;;;27.79;71.02;99725.94;5069012;28;19916;-74
2023/06/25 11:31:04;;;;;;;;;;;;;;;27.87;70.09;99729.03;5072690;28;19926;-74
2023/06/25 11:33:30;;;;;;;;;;;;;;;27.91;67.49;99719.34;5071630;28;20019;-74
2023/06/25 11:36:09;;;;;;;;;;;;;;;27.94;68.71;99712.56;5071501;28;20368;-75
2023/06/25 11:38:34;;;;;;;;;;;;;;;28.02;67.34;99710.25;5072776;28;20445;-74
2023/06/25 11:41:00;;;;;;;;;;;;;;;28.07;66.03;99712.19;5072579;28;19963;-75
2023/06/25 11:43:26;;;;;;;;;;;;;;;28.11;66.41;99703.28;5072562;28;19916;-74
2023/06/25 11:45:52;;;;;;;;;;;;;;;28.24;64.73;99709.44;5072595;28;20014;-74
2023/06/25 11:48:18;;;;;;;;;;;;;;;28.26;64.39;99705.41;5072546;28;19920;-74
2023/06/25 11:50:44;;;;;;;;;;;;;;;28.30;64.41;99706.53;5071753;28;19970;-74
2023/06/25 11:53:10;;;;;;;;;;;;;;;28.36;63.15;99704.69;5071874;28;20011;-74
2023/06/25 11:55:35;;;;;;;;;;;;;;;28.39;62.84;99704.19;5072145;28;20012;-74
2023/06/25 11:58:01;;;;;;;;;;;;;;;28.44;62.98;99706.94;5071869;28;19944;-75
2023/06/25 12:00:26;;;;;;;;;;;;;;;28.53;63.98;99705.41;5070749;28;19916;-75
2023/06/25 12:02:52;;;;;;;;;;;;;;;28.63;63.48;99688.41;5071877;28;20007;-75
2023/06/25 12:05:17;;;;;;;;;;;;;;;28.75;62.33;99687.19;5071625;28;19956;-75
2023/06/25 12:07:42;;;;;;;;;;;;;;;28.87;62.95;99690.53;5071795;28;19916;-75
2023/06/25 12:10:08;;;;;;;;;;;;;;;29.00;60.91;99685.75;5070224;28;20015;-75
2023/06/25 12:12:35;;;;;;;;;;;;;;;29.04;60.65;99684.19;5071950;28;19955;-74
2023/06/25 12:15:00;;;;;;;;;;;;;;;29.09;59.58;99676.88;5071772;28;19920;-73
2023/06/25 12:17:26;;;;;;;;;;;;;;;29.23;59.16;99677.22;5071505;28;19920;-74
2023/06/25 12:19:51;;;;;;;;;;;;;;;29.34;57.52;99670.81;5071416;28;19996;-75
2023/06/25 12:22:17;;;;;;;;;;;;;;;29.36;55.39;99676.81;5070080;28;20368;-74
2023/06/25 12:24:42;;;;;;;;;;;;;;;29.56;55.79;99671.50;5071712;28;19921;-76
2023/06/25 12:27:07;;;;;;;;;;;;;;;29.74;55.79;99661.25;5071631;28;19925;-76
2023/06/25 12:29:33;;;;;;;;;;;;;;;29.77;54.07;99649.84;5070367;28;20019;-76
2023/06/25 12:31:58;;;;;;;;;;;;;;;29.88;54.36;99656.94;5071308;28;19920;-75
2023/06/25 12:34:24;;;;;;;;;;;;;;;30.09;54.24;99658.69;5071662;28;19920;-75